Vega Desgagnes — VOCQ — position and weather

sailwx.info

Track history (hours):
 
Tides and Currents Weather Stations Pressure Air Temp Water Temp Dewpoint Dewpoint Depression Visibility Wind Speed Wind Dir Waves Ship Positions

Vega Desgagnes

Last reported at 2014-Sep-14 01:16 UTC. Time now 2014-Sep-19 05:50 UTC.
Position N 44°01' W 076°29'.

Length 141 m; draft 7.5 m.

Type: Tanker. MMSI: 316003770.

Date/timePositionNaut miles runAvg speedWind from/ knotsBaromVisibWave heightAir tempDewpointWater temp
2014-Sep-14 01:16N 44°01' W 076°29'110 7.4
2014-Sep-13 10:20N 45°08' W 074°26'6 7.5
2014-Sep-13 09:33N 45°11' W 074°19'6 6.3
2014-Sep-13 08:34N 45°14' W 074°11'8 7.7
2014-Sep-13 07:34N 45°14' W 074°00'5 5.3
2014-Sep-13 06:34N 45°18' W 073°56'1 1.0
2014-Sep-13 05:34N 45°19' W 073°55'7 7.3
2014-Sep-13 04:34N 45°24' W 073°47'8 8.1
2014-Sep-13 03:34N 45°24' W 073°36'2 2.4
2014-Sep-13 02:34N 45°24' W 073°32'21 4.8
2014-Sep-12 22:11N 45°45' W 073°24'610.4
2014-Sep-12 21:34N 45°50' W 073°18'22 9.6
2014-Sep-12 19:14N 46°07' W 072°58'810.2
2014-Sep-12 18:29N 46°12' W 072°50'1011.3
2014-Sep-12 17:33N 46°17' W 072°36'1010.2
2014-Sep-12 16:33N 46°24' W 072°25'1110.6
2014-Sep-12 15:33N 46°31' W 072°13'2 0.1
2014-Sep-11 06:31N 46°32' W 072°10'1314.1
2014-Sep-11 05:33N 46°23' W 072°25'9 8.9
2014-Sep-11 04:33N 46°17' W 072°35'0 0.0
2014-Sep-11 03:33N 46°18' W 072°35'0 0.0
2014-Sep-11 02:33N 46°18' W 072°35'0 0.0
2014-Sep-11 01:33N 46°18' W 072°35'0 0.0
2014-Sep-11 00:33N 46°18' W 072°35'0 0.0
2014-Sep-10 23:33N 46°18' W 072°35'0 0.0
2014-Sep-10 22:33N 46°18' W 072°35'0 0.0
2014-Sep-10 21:27N 46°18' W 072°35'5 5.7
2014-Sep-10 20:33N 46°16' W 072°42'2612.3
2014-Sep-10 18:26N 45°59' W 073°11'1112.7
2014-Sep-10 17:33N 45°49' W 073°18'1312.6
2014-Sep-10 16:33N 45°39' W 073°28'3 2.4
2014-Sep-10 15:32N 45°37' W 073°30'0 0.0
2014-Sep-10 14:32N 45°37' W 073°30'0 0.0
2014-Sep-10 13:32N 45°37' W 073°30'0 0.0
2014-Sep-10 12:32N 45°37' W 073°30'0 0.0
2014-Sep-10 11:32N 45°37' W 073°30'0 0.0
2014-Sep-10 10:32N 45°37' W 073°30'0 0.0
2014-Sep-10 09:33N 45°37' W 073°30'2 1.8
2014-Sep-10 08:34N 45°35' W 073°30'5 5.5
2014-Sep-10 07:33N 45°30' W 073°31'3 2.6
2014-Sep-10 06:33N 45°27' W 073°30'4 3.7
2014-Sep-10 05:33N 45°24' W 073°34'3 3.1
2014-Sep-10 04:33N 45°24' W 073°38'7 6.9
2014-Sep-10 03:33N 45°23' W 073°48'7 6.5
2014-Sep-10 02:33N 45°19' W 073°55'1 1.1
2014-Sep-10 01:33N 45°18' W 073°56'6 6.1
2014-Sep-10 00:33N 45°13' W 074°02'1111.3
2014-Sep-09 23:33N 45°12' W 074°18'95 8.3
2014-Sep-09 12:07N 44°15' W 076°05'711.8
2014-Sep-09 11:33N 44°12' W 076°13'1411.1
2014-Sep-09 10:16N 44°02' W 076°27'  
2014-Sep-04 01:27N 43°53' W 076°51'  
Track history (hours):
 
Tides and Currents Weather Stations Pressure Air Temp Water Temp Dewpoint Dewpoint Depression Visibility Wind Speed Wind Dir Waves Ship Positions

Vega Desgagnes

Last reported at 2014-Sep-14 01:16 UTC. Time now 2014-Sep-19 05:50 UTC.
Position N 44°01' W 076°29'.

Length 141 m; draft 7.5 m.

Type: Tanker. MMSI: 316003770.

Date/timePositionNaut miles runAvg speedWind from/ knotsBaromVisibWave heightAir tempDewpointWater temp
2014-Sep-14 01:16N 44°01' W 076°29'110 7.4
2014-Sep-13 10:20N 45°08' W 074°26'6 7.5
2014-Sep-13 09:33N 45°11' W 074°19'6 6.3
2014-Sep-13 08:34N 45°14' W 074°11'8 7.7
2014-Sep-13 07:34N 45°14' W 074°00'5 5.3
2014-Sep-13 06:34N 45°18' W 073°56'1 1.0
2014-Sep-13 05:34N 45°19' W 073°55'7 7.3
2014-Sep-13 04:34N 45°24' W 073°47'8 8.1
2014-Sep-13 03:34N 45°24' W 073°36'2 2.4
2014-Sep-13 02:34N 45°24' W 073°32'21 4.8
2014-Sep-12 22:11N 45°45' W 073°24'610.4
2014-Sep-12 21:34N 45°50' W 073°18'22 9.6
2014-Sep-12 19:14N 46°07' W 072°58'810.2
2014-Sep-12 18:29N 46°12' W 072°50'1011.3
2014-Sep-12 17:33N 46°17' W 072°36'1010.2
2014-Sep-12 16:33N 46°24' W 072°25'1110.6
2014-Sep-12 15:33N 46°31' W 072°13'2 0.1
2014-Sep-11 06:31N 46°32' W 072°10'1314.1
2014-Sep-11 05:33N 46°23' W 072°25'9 8.9
2014-Sep-11 04:33N 46°17' W 072°35'0 0.0
2014-Sep-11 03:33N 46°18' W 072°35'0 0.0
2014-Sep-11 02:33N 46°18' W 072°35'0 0.0
2014-Sep-11 01:33N 46°18' W 072°35'0 0.0
2014-Sep-11 00:33N 46°18' W 072°35'0 0.0
2014-Sep-10 23:33N 46°18' W 072°35'0 0.0
2014-Sep-10 22:33N 46°18' W 072°35'0 0.0
2014-Sep-10 21:27N 46°18' W 072°35'5 5.7
2014-Sep-10 20:33N 46°16' W 072°42'2612.3
2014-Sep-10 18:26N 45°59' W 073°11'1112.7
2014-Sep-10 17:33N 45°49' W 073°18'1312.6
2014-Sep-10 16:33N 45°39' W 073°28'3 2.4
2014-Sep-10 15:32N 45°37' W 073°30'0 0.0
2014-Sep-10 14:32N 45°37' W 073°30'0 0.0
2014-Sep-10 13:32N 45°37' W 073°30'0 0.0
2014-Sep-10 12:32N 45°37' W 073°30'0 0.0
2014-Sep-10 11:32N 45°37' W 073°30'0 0.0
2014-Sep-10 10:32N 45°37' W 073°30'0 0.0
2014-Sep-10 09:33N 45°37' W 073°30'2 1.8
2014-Sep-10 08:34N 45°35' W 073°30'5 5.5
2014-Sep-10 07:33N 45°30' W 073°31'3 2.6
2014-Sep-10 06:33N 45°27' W 073°30'4 3.7
2014-Sep-10 05:33N 45°24' W 073°34'3 3.1
2014-Sep-10 04:33N 45°24' W 073°38'7 6.9
2014-Sep-10 03:33N 45°23' W 073°48'7 6.5
2014-Sep-10 02:33N 45°19' W 073°55'1 1.1
2014-Sep-10 01:33N 45°18' W 073°56'6 6.1
2014-Sep-10 00:33N 45°13' W 074°02'1111.3
2014-Sep-09 23:33N 45°12' W 074°18'95 8.3
2014-Sep-09 12:07N 44°15' W 076°05'711.8
2014-Sep-09 11:33N 44°12' W 076°13'1411.1
2014-Sep-09 10:16N 44°02' W 076°27'  
2014-Sep-04 01:27N 43°53' W 076°51'  

Dump ship's entire track history